createdAt,value
2018-02-16T00:00:41.498Z,26.65
2018-02-16T00:01:15.669Z,26.27
2018-02-16T00:01:49.565Z,26.40
2018-02-16T00:02:23.448Z,27.25
2018-02-16T00:02:57.314Z,27.85
2018-02-16T00:03:31.181Z,26.80
2018-02-16T00:04:05.067Z,27.55
2018-02-16T00:04:39.026Z,27.77
2018-02-16T00:05:12.899Z,27.15
2018-02-16T00:05:46.760Z,27.92
2018-02-16T00:06:20.710Z,27.40
2018-02-16T00:06:54.692Z,26.95
2018-02-16T00:07:28.576Z,27.45
2018-02-16T00:08:02.722Z,26.45
2018-02-16T00:08:36.609Z,29.42
2018-02-16T00:09:10.508Z,27.73
2018-02-16T00:09:44.397Z,28.20
2018-02-16T00:10:18.264Z,26.00
2018-02-16T00:10:52.291Z,27.73
2018-02-16T00:11:26.151Z,28.40
2018-02-16T00:12:00.050Z,26.45
2018-02-16T00:12:34.065Z,27.33
2018-02-16T00:13:07.939Z,27.30
2018-02-16T00:13:41.968Z,27.85
2018-02-16T00:14:15.912Z,29.10
2018-02-16T00:14:50.198Z,27.92
2018-02-16T00:15:24.117Z,28.02
2018-02-16T00:15:58.006Z,28.83
2018-02-16T00:16:31.875Z,27.58
2018-02-16T00:17:05.888Z,27.42
2018-02-16T00:17:39.949Z,29.83
2018-02-16T00:18:14.605Z,28.38
2018-02-16T00:18:48.462Z,28.23
2018-02-16T00:19:22.362Z,27.42
2018-02-16T00:19:56.556Z,28.55
2018-02-16T00:20:30.488Z,29.10
2018-02-16T00:21:04.397Z,28.92
2018-02-16T00:21:38.330Z,29.15
2018-02-16T00:22:13.349Z,27.13
2018-02-16T00:22:47.418Z,28.23
2018-02-16T00:23:21.414Z,27.48
2018-02-16T00:23:55.276Z,29.50
2018-02-16T00:24:29.169Z,27.20
2018-02-16T00:25:03.140Z,29.42
2018-02-16T00:25:37.015Z,27.70
2018-02-16T00:26:10.898Z,27.50
2018-02-16T00:26:44.792Z,26.98
2018-02-16T00:27:18.756Z,28.25
2018-02-16T00:27:52.697Z,28.87
2018-02-16T00:28:26.558Z,28.12
2018-02-16T00:29:00.540Z,27.27
2018-02-16T00:29:34.537Z,29.77
2018-02-16T00:30:08.477Z,30.35
2018-02-16T00:30:42.342Z,28.12
2018-02-16T00:31:16.260Z,31.77
2018-02-16T00:31:50.343Z,28.05
2018-02-16T00:32:24.260Z,29.17
2018-02-16T00:32:58.121Z,29.20
2018-02-16T00:33:32.171Z,29.73
2018-02-16T00:34:06.057Z,28.60
2018-02-16T00:34:39.992Z,27.85
2018-02-16T00:35:13.901Z,27.42
2018-02-16T00:35:47.956Z,28.58
2018-02-16T00:36:21.959Z,29.17
2018-02-16T00:36:55.856Z,28.23
2018-02-16T00:37:29.881Z,28.85
2018-02-16T00:38:03.840Z,31.10
2018-02-16T00:38:37.899Z,27.80
2018-02-16T00:39:23.826Z,31.27
2018-02-16T00:40:00.520Z,29.15
2018-02-16T00:40:37.141Z,30.08
2018-02-16T00:41:11.071Z,28.90
2018-02-16T00:41:44.992Z,29.58
2018-02-16T00:42:18.965Z,27.48
2018-02-16T00:42:53.076Z,28.05
2018-02-16T00:43:27.068Z,27.83
2018-02-16T00:44:01.147Z,27.90
2018-02-16T00:44:44.991Z,30.80
2018-02-16T00:45:21.828Z,28.00
2018-02-16T00:47:02.197Z,26.83
2018-02-16T00:47:36.622Z,26.98
2018-02-16T00:48:11.331Z,26.05
2018-02-16T00:48:48.330Z,29.80
2018-02-16T00:49:22.419Z,28.00
2018-02-16T00:50:03.564Z,29.92
2018-02-16T00:50:42.472Z,28.15
2018-02-16T00:51:17.230Z,28.42
2018-02-16T00:51:52.282Z,28.85
2018-02-16T00:52:26.142Z,27.40
2018-02-16T00:53:02.228Z,27.00
2018-02-16T00:53:36.103Z,29.00
2018-02-16T00:54:11.612Z,28.67
2018-02-16T00:54:45.675Z,32.40
2018-02-16T00:55:21.344Z,29.65
2018-02-16T00:55:55.244Z,29.45
2018-02-16T00:56:30.900Z,29.42
2018-02-16T00:57:10.771Z,28.42
2018-02-16T00:57:49.562Z,29.75
2018-02-16T00:58:25.479Z,28.58
2018-02-16T00:58:59.498Z,29.75
2018-02-16T00:59:34.781Z,28.23
2018-02-16T01:00:10.231Z,29.37
2018-02-16T01:00:45.412Z,30.35
2018-02-16T01:01:20.306Z,28.60
2018-02-16T01:01:54.249Z,29.42
2018-02-16T01:02:29.455Z,29.48
2018-02-16T01:03:03.317Z,29.12
2018-02-16T01:03:37.343Z,28.08
2018-02-16T01:04:12.174Z,28.85
2018-02-16T01:04:46.029Z,28.83
2018-02-16T01:05:19.896Z,30.40
2018-02-16T01:05:54.021Z,30.30
2018-02-16T01:06:27.914Z,28.87
2018-02-16T01:07:03.706Z,29.67
2018-02-16T01:07:37.560Z,28.85
2018-02-16T01:08:11.443Z,28.92
2018-02-16T01:08:45.390Z,29.70
2018-02-16T01:09:19.251Z,30.25
2018-02-16T01:09:53.118Z,29.45
2018-02-16T01:10:26.993Z,28.92
2018-02-16T01:11:01.008Z,29.45
2018-02-16T01:11:34.873Z,29.08
2018-02-16T01:12:09.736Z,30.00
2018-02-16T01:12:43.630Z,29.58
2018-02-16T01:13:17.584Z,27.83
2018-02-16T01:13:51.472Z,29.50
2018-02-16T01:14:25.345Z,29.45
2018-02-16T01:14:59.319Z,29.30
2018-02-16T01:15:33.315Z,30.55
2018-02-16T01:16:07.224Z,30.17
2018-02-16T01:16:41.162Z,28.67
2018-02-16T01:17:15.044Z,28.80
2018-02-16T01:17:49.000Z,29.55
2018-02-16T01:18:22.933Z,30.30
2018-02-16T01:18:57.060Z,30.12
2018-02-16T01:19:30.940Z,28.98
2018-02-16T01:20:04.918Z,29.15
2018-02-16T01:20:38.807Z,29.90
2018-02-16T01:21:12.721Z,29.63
2018-02-16T01:21:46.617Z,31.00
2018-02-16T01:22:20.503Z,30.60
2018-02-16T01:22:54.506Z,29.30
2018-02-16T01:23:28.498Z,31.08
2018-02-16T01:24:02.652Z,30.48
2018-02-16T01:24:36.512Z,30.30
2018-02-16T01:25:10.597Z,29.35
2018-02-16T01:25:44.775Z,30.70
2018-02-16T01:26:18.749Z,30.25
2018-02-16T01:26:52.970Z,29.70
2018-02-16T01:27:27.068Z,29.60
2018-02-16T01:28:01.032Z,30.17
2018-02-16T01:28:34.939Z,27.95
2018-02-16T01:29:08.817Z,30.50
2018-02-16T01:29:42.671Z,31.20
2018-02-16T01:30:16.539Z,32.45
2018-02-16T01:30:50.519Z,28.83
2018-02-16T01:31:24.455Z,29.58
2018-02-16T01:31:58.354Z,33.03
2018-02-16T01:32:32.262Z,28.73
2018-02-16T01:33:06.198Z,29.40
2018-02-16T01:33:40.109Z,28.30
2018-02-16T01:34:14.007Z,30.55
2018-02-16T01:34:47.885Z,31.62
2018-02-16T01:35:22.790Z,31.73
2018-02-16T01:35:56.683Z,30.00
2018-02-16T01:36:30.706Z,31.35
2018-02-16T01:37:04.659Z,30.02
2018-02-16T01:37:38.612Z,31.98
2018-02-16T01:38:12.507Z,31.90
2018-02-16T01:38:46.410Z,33.03
2018-02-16T01:39:20.285Z,31.90
2018-02-16T01:39:54.240Z,30.30
2018-02-16T01:40:28.386Z,30.92
2018-02-16T01:41:02.328Z,30.92
2018-02-16T01:41:36.277Z,29.52
2018-02-16T01:42:10.410Z,29.52
2018-02-16T01:42:44.378Z,33.30
2018-02-16T01:43:18.315Z,31.62
2018-02-16T01:43:52.244Z,31.55
2018-02-16T01:44:26.125Z,30.62
2018-02-16T01:45:00.343Z,31.80
2018-02-16T01:45:34.197Z,32.30
2018-02-16T01:46:08.135Z,30.45
2018-02-16T01:46:42.076Z,32.28
2018-02-16T01:47:15.939Z,31.30
2018-02-16T01:47:49.914Z,31.20
2018-02-16T01:48:23.800Z,30.05
2018-02-16T01:48:57.709Z,30.92
2018-02-16T01:49:31.754Z,31.55
2018-02-16T01:50:05.633Z,30.67
2018-02-16T01:50:39.574Z,30.70
2018-02-16T01:51:13.555Z,31.42
2018-02-16T01:51:47.572Z,32.85
2018-02-16T01:52:21.463Z,33.20
2018-02-16T01:52:55.365Z,32.90
2018-02-16T01:54:09.709Z,30.90
2018-02-16T01:54:43.602Z,31.95
2018-02-16T01:55:17.475Z,30.33
2018-02-16T01:55:51.430Z,31.33
2018-02-16T01:56:25.413Z,32.15
2018-02-16T01:56:59.422Z,31.60
2018-02-16T01:57:33.599Z,30.73
2018-02-16T01:58:07.494Z,31.40
2018-02-16T01:58:41.453Z,32.20
2018-02-16T01:59:15.348Z,30.35
2018-02-16T01:59:49.277Z,31.95
2018-02-16T02:00:23.332Z,31.40
2018-02-16T02:00:57.295Z,34.55
2018-02-16T02:01:31.190Z,32.97
2018-02-16T02:02:05.112Z,31.25
2018-02-16T02:02:39.022Z,31.27
2018-02-16T02:03:12.911Z,31.45
2018-02-16T02:03:46.796Z,32.72
2018-02-16T02:04:20.720Z,32.35
2018-02-16T02:04:54.599Z,33.63
2018-02-16T02:05:28.736Z,34.75
2018-02-16T02:06:02.659Z,32.85
2018-02-16T02:06:36.653Z,32.35
2018-02-16T02:07:10.582Z,33.35
2018-02-16T02:07:44.503Z,33.10
2018-02-16T02:08:18.405Z,33.13
2018-02-16T02:08:52.361Z,33.97
2018-02-16T02:09:26.373Z,33.58
2018-02-16T02:10:00.256Z,31.75
2018-02-16T02:10:34.197Z,33.58
2018-02-16T02:11:08.165Z,32.17
2018-02-16T02:11:42.237Z,30.25
2018-02-16T02:12:16.136Z,33.28
2018-02-16T02:12:50.198Z,33.60
2018-02-16T02:13:24.142Z,32.80
2018-02-16T02:13:58.012Z,33.20
2018-02-16T02:14:31.935Z,32.25
2018-02-16T02:15:05.809Z,32.53
2018-02-16T02:15:39.675Z,32.05
2018-02-16T02:16:13.847Z,31.35
2018-02-16T02:16:47.868Z,30.60
2018-02-16T02:17:21.807Z,32.65
2018-02-16T02:17:55.837Z,32.40
2018-02-16T02:18:29.727Z,31.80
2018-02-16T02:19:03.910Z,33.28
2018-02-16T02:19:38.006Z,30.85
2018-02-16T02:20:12.804Z,31.67
2018-02-16T02:20:46.751Z,33.08
2018-02-16T02:21:20.756Z,29.63
2018-02-16T02:21:54.623Z,31.87
2018-02-16T02:22:28.502Z,31.58
2018-02-16T02:23:02.367Z,31.83
2018-02-16T02:23:36.487Z,32.75
2018-02-16T02:24:10.485Z,32.65
2018-02-16T02:24:44.376Z,32.15
2018-02-16T02:25:18.321Z,32.38
2018-02-16T02:25:52.218Z,32.33
2018-02-16T02:26:26.121Z,33.05
2018-02-16T02:27:00.002Z,33.33
2018-02-16T02:27:33.945Z,31.80
2018-02-16T02:28:08.001Z,32.13
2018-02-16T02:28:41.903Z,30.55
2018-02-16T02:29:15.798Z,32.90
2018-02-16T02:29:49.668Z,33.20
2018-02-16T02:30:23.541Z,32.63
2018-02-16T02:30:57.421Z,33.78
2018-02-16T02:31:31.286Z,33.10
2018-02-16T02:32:05.232Z,31.92
2018-02-16T02:32:39.147Z,33.60
2018-02-16T02:33:13.013Z,34.63
2018-02-16T02:33:46.944Z,33.72
2018-02-16T02:34:20.818Z,33.03
2018-02-16T02:34:54.705Z,32.03
2018-02-16T02:35:28.598Z,31.02
2018-02-16T02:36:02.469Z,33.85
2018-02-16T02:36:36.405Z,32.45
2018-02-16T02:37:10.314Z,34.08
2018-02-16T02:37:44.422Z,34.30
2018-02-16T02:38:18.353Z,33.30
2018-02-16T02:38:52.286Z,32.50
2018-02-16T02:39:26.149Z,32.17
2018-02-16T02:40:00.018Z,33.65
2018-02-16T02:40:33.953Z,35.30
2018-02-16T02:41:07.864Z,33.55
2018-02-16T02:41:41.735Z,32.72
2018-02-16T02:42:15.619Z,34.00
2018-02-16T02:42:49.513Z,32.75
2018-02-16T02:43:23.444Z,32.42
2018-02-16T02:43:57.517Z,33.03
2018-02-16T02:44:31.425Z,33.17
2018-02-16T02:45:05.367Z,33.20
2018-02-16T02:45:39.258Z,35.47
2018-02-16T02:46:13.137Z,33.90
2018-02-16T02:46:47.150Z,32.90
2018-02-16T02:47:21.031Z,34.25
2018-02-16T02:47:55.012Z,32.80
2018-02-16T02:48:29.321Z,33.95
2018-02-16T02:49:03.294Z,34.03
2018-02-16T02:49:37.289Z,32.20
2018-02-16T02:50:11.430Z,31.87
2018-02-16T02:50:48.578Z,36.08
2018-02-16T02:51:22.436Z,32.88
2018-02-16T02:51:56.373Z,33.75
2018-02-16T02:52:30.294Z,33.00
2018-02-16T02:53:04.261Z,35.20
2018-02-16T02:53:38.481Z,33.63
2018-02-16T02:54:12.403Z,33.63
2018-02-16T02:54:46.431Z,34.38
2018-02-16T02:55:20.323Z,33.80
2018-02-16T02:55:54.378Z,36.30
2018-02-16T02:56:28.320Z,35.65
2018-02-16T02:57:02.208Z,34.00
2018-02-16T02:57:37.225Z,35.47
2018-02-16T02:58:11.160Z,34.95
2018-02-16T02:58:45.051Z,36.63
2018-02-16T02:59:18.946Z,35.80
2018-02-16T02:59:52.863Z,33.70
2018-02-16T03:00:26.856Z,32.60
2018-02-16T03:01:00.744Z,33.63
2018-02-16T03:01:34.614Z,34.25
2018-02-16T03:02:08.593Z,33.97
2018-02-16T03:02:43.624Z,36.28
2018-02-16T03:03:17.609Z,33.60
2018-02-16T03:03:51.506Z,34.75
2018-02-16T03:04:25.436Z,34.55
2018-02-16T03:04:59.692Z,33.13
2018-02-16T03:05:33.629Z,33.83
2018-02-16T03:06:07.534Z,32.80
2018-02-16T03:06:41.621Z,35.95
2018-02-16T03:07:15.528Z,34.15
2018-02-16T03:07:49.620Z,33.83
2018-02-16T03:08:23.602Z,34.70
2018-02-16T03:08:57.468Z,34.63
2018-02-16T03:09:31.413Z,34.25
2018-02-16T03:10:05.427Z,35.45
2018-02-16T03:10:39.379Z,34.97
2018-02-16T03:11:13.305Z,34.05
2018-02-16T03:11:47.165Z,35.03
2018-02-16T03:12:21.104Z,34.28
2018-02-16T03:12:55.012Z,32.78
2018-02-16T03:13:28.996Z,37.00
2018-02-16T03:14:02.867Z,36.03
2018-02-16T03:14:36.725Z,34.35
2018-02-16T03:15:10.717Z,33.17
2018-02-16T03:15:44.816Z,34.75
2018-02-16T03:16:18.853Z,33.20
2018-02-16T03:16:52.826Z,34.72
2018-02-16T03:17:26.733Z,35.22
2018-02-16T03:18:00.692Z,34.55
2018-02-16T03:18:34.641Z,33.78
2018-02-16T03:19:08.508Z,34.70
2018-02-16T03:19:42.385Z,33.83
2018-02-16T03:20:16.360Z,35.70
2018-02-16T03:20:50.381Z,36.08
2018-02-16T03:21:24.329Z,35.25
2018-02-16T03:21:58.219Z,35.00
2018-02-16T03:22:32.164Z,35.00
2018-02-16T03:23:06.288Z,36.38
2018-02-16T03:23:40.208Z,36.45
2018-02-16T03:24:14.140Z,36.35
2018-02-16T03:24:48.114Z,36.83
2018-02-16T03:25:22.012Z,35.35
2018-02-16T03:25:56.088Z,35.45
2018-02-16T03:26:30.055Z,35.75
2018-02-16T03:27:03.947Z,35.00
2018-02-16T03:27:37.940Z,35.40
2018-02-16T03:28:12.087Z,38.17
2018-02-16T03:28:46.045Z,36.45
2018-02-16T03:29:20.072Z,36.67
2018-02-16T03:29:54.001Z,35.85
2018-02-16T03:30:27.884Z,37.67
2018-02-16T03:31:01.765Z,38.45
2018-02-16T03:31:35.634Z,37.38
2018-02-16T03:32:09.538Z,38.78
2018-02-16T03:32:43.689Z,37.53
2018-02-16T03:33:17.613Z,36.38
2018-02-16T03:33:51.723Z,36.70
2018-02-16T03:34:25.618Z,37.30
2018-02-16T03:34:59.523Z,35.17
2018-02-16T03:35:33.526Z,38.08
2018-02-16T03:36:08.155Z,35.22
2018-02-16T03:36:42.125Z,37.67
2018-02-16T03:37:16.206Z,37.92
2018-02-16T03:37:50.157Z,36.88
2018-02-16T03:38:24.208Z,36.35
2018-02-16T03:38:58.292Z,39.95
2018-02-16T03:39:32.245Z,39.75
2018-02-16T03:40:06.216Z,39.67
2018-02-16T03:40:40.222Z,38.15
2018-02-16T03:41:14.160Z,39.70
2018-02-16T03:41:48.113Z,39.28
2018-02-16T03:42:22.000Z,35.47
2018-02-16T03:42:55.857Z,40.45
2018-02-16T03:43:29.716Z,39.17
2018-02-16T03:44:03.661Z,37.88
2018-02-16T03:44:37.556Z,35.05
2018-02-16T03:45:11.504Z,39.35
2018-02-16T03:45:45.362Z,37.85
2018-02-16T03:46:19.397Z,39.95
2018-02-16T03:46:53.329Z,37.83
2018-02-16T03:47:27.536Z,37.97
2018-02-16T03:48:01.406Z,38.40
2018-02-16T03:48:35.465Z,38.08
2018-02-16T03:49:09.397Z,39.38
2018-02-16T03:49:43.373Z,37.95
2018-02-16T03:50:17.248Z,39.13
2018-02-16T03:50:51.141Z,38.63
2018-02-16T03:51:25.044Z,39.38
2018-02-16T03:51:58.924Z,38.05
2018-02-16T03:52:32.945Z,38.55
2018-02-16T03:53:06.992Z,40.75
2018-02-16T03:53:40.882Z,39.90
2018-02-16T03:54:15.238Z,37.65
2018-02-16T03:54:49.101Z,36.92
2018-02-16T03:55:22.995Z,37.78
2018-02-16T03:55:56.900Z,36.50
2018-02-16T03:56:30.820Z,39.80
2018-02-16T03:57:04.670Z,39.08
2018-02-16T03:57:38.825Z,38.83
2018-02-16T03:58:12.753Z,39.05
2018-02-16T03:58:46.681Z,36.40
2018-02-16T03:59:20.698Z,37.78
2018-02-16T03:59:55.701Z,36.20
2018-02-16T04:00:29.634Z,38.13
2018-02-16T04:01:03.673Z,37.65
2018-02-16T04:01:37.726Z,38.60
2018-02-16T04:02:11.713Z,37.80
2018-02-16T04:02:45.811Z,36.65
2018-02-16T04:03:19.683Z,40.17
2018-02-16T04:03:53.697Z,38.72
2018-02-16T04:04:27.598Z,39.30
2018-02-16T04:05:01.529Z,37.90
2018-02-16T04:05:35.685Z,39.90
2018-02-16T04:06:09.593Z,38.53
2018-02-16T04:06:43.584Z,40.58
2018-02-16T04:07:17.695Z,38.70
2018-02-16T04:07:51.660Z,39.40
2018-02-16T04:08:25.629Z,38.45
2018-02-16T04:08:59.576Z,37.97
2018-02-16T04:09:33.467Z,38.55
2018-02-16T04:10:07.356Z,39.55
2018-02-16T04:10:41.358Z,37.60
2018-02-16T04:11:15.216Z,36.72
2018-02-16T04:11:49.106Z,40.25
2018-02-16T04:12:22.975Z,36.60
2018-02-16T04:12:56.927Z,38.40
2018-02-16T04:13:30.892Z,37.85
2018-02-16T04:14:04.757Z,36.60
2018-02-16T04:14:38.800Z,41.00
2018-02-16T04:15:12.727Z,36.33
2018-02-16T04:15:46.612Z,37.60
2018-02-16T04:16:20.494Z,37.53
2018-02-16T04:16:54.447Z,37.08
2018-02-16T04:17:28.333Z,37.63
2018-02-16T04:18:02.220Z,44.00
2018-02-16T04:18:36.168Z,39.20
2018-02-16T04:19:10.134Z,38.05
2018-02-16T04:19:44.133Z,37.30
2018-02-16T04:20:18.044Z,37.33
2018-02-16T04:20:52.184Z,37.13
2018-02-16T04:21:26.123Z,40.90
2018-02-16T04:22:00.193Z,36.67
2018-02-16T04:22:34.148Z,38.58
2018-02-16T04:23:08.146Z,38.00
2018-02-16T04:23:42.067Z,38.92
2018-02-16T04:24:15.976Z,38.38
2018-02-16T04:24:49.893Z,36.63
2018-02-16T04:25:23.806Z,36.00
2018-02-16T04:25:57.740Z,34.90
2018-02-16T04:26:31.718Z,35.20
2018-02-16T04:27:05.681Z,35.63
2018-02-16T04:27:39.636Z,36.47
2018-02-16T04:28:13.514Z,37.75
2018-02-16T04:28:47.432Z,37.63
2018-02-16T04:29:21.341Z,36.33
2018-02-16T04:29:55.237Z,37.15
2018-02-16T04:30:29.133Z,38.58
2018-02-16T04:31:03.041Z,36.58
2018-02-16T04:31:36.937Z,38.60
2018-02-16T04:32:10.796Z,37.58
2018-02-16T04:32:44.933Z,36.03
2018-02-16T04:33:18.808Z,37.28
2018-02-16T04:33:53.131Z,38.22
2018-02-16T04:34:27.193Z,37.40
2018-02-16T04:35:01.603Z,36.03
2018-02-16T04:35:35.721Z,34.80
2018-02-16T04:36:09.581Z,36.42
2018-02-16T04:36:43.480Z,37.63
2018-02-16T04:37:17.459Z,36.20
2018-02-16T04:37:51.392Z,34.80
2018-02-16T04:38:25.275Z,36.33
2018-02-16T04:38:59.244Z,36.05
2018-02-16T04:39:33.234Z,37.10
2018-02-16T04:40:07.264Z,35.55
2018-02-16T04:40:41.233Z,36.85
2018-02-16T04:41:15.137Z,35.13
2018-02-16T04:41:49.100Z,35.42
2018-02-16T04:42:23.090Z,36.00
2018-02-16T04:42:57.065Z,35.72
2018-02-16T04:43:31.070Z,36.58
2018-02-16T04:44:05.007Z,36.53
2018-02-16T04:44:38.922Z,38.05
2018-02-16T04:45:12.886Z,35.55
2018-02-16T04:45:46.779Z,35.78
2018-02-16T04:46:20.685Z,37.88
2018-02-16T04:46:54.800Z,35.60
2018-02-16T04:47:29.116Z,35.05
2018-02-16T04:48:03.097Z,38.35
2018-02-16T04:48:37.015Z,36.65
2018-02-16T04:49:10.915Z,35.22
2018-02-16T04:49:44.859Z,37.78
2018-02-16T04:50:18.951Z,38.88
2018-02-16T04:50:52.982Z,35.35
2018-02-16T04:51:26.947Z,39.13
2018-02-16T04:52:00.876Z,37.88
2018-02-16T04:52:34.821Z,36.53
2018-02-16T04:53:08.725Z,36.22
2018-02-16T04:53:42.629Z,34.47
2018-02-16T04:54:16.504Z,35.33
2018-02-16T04:54:50.641Z,35.92
2018-02-16T04:55:24.534Z,34.45
2018-02-16T04:55:58.469Z,37.35
2018-02-16T04:56:32.328Z,34.30
2018-02-16T04:57:06.245Z,37.22
2018-02-16T04:57:40.128Z,36.58
2018-02-16T04:58:13.991Z,35.95
2018-02-16T04:58:48.784Z,36.67
2018-02-16T04:59:22.685Z,35.67
2018-02-16T04:59:56.632Z,36.35
2018-02-16T05:00:30.531Z,37.42
2018-02-16T05:01:04.412Z,35.38
2018-02-16T05:01:38.333Z,34.67
2018-02-16T05:02:12.406Z,35.25
2018-02-16T05:02:46.454Z,35.42
2018-02-16T05:03:20.431Z,36.70
2018-02-16T05:03:54.541Z,34.05
2018-02-16T05:04:28.613Z,35.85
2018-02-16T05:05:02.871Z,34.53
2018-02-16T05:05:36.814Z,35.60
2018-02-16T05:06:10.699Z,37.78
2018-02-16T05:06:44.562Z,33.55
2018-02-16T05:07:18.440Z,35.08
2018-02-16T05:07:52.496Z,37.65
2018-02-16T05:08:26.437Z,35.63
2018-02-16T05:09:00.441Z,35.80
2018-02-16T05:09:34.366Z,36.38
2018-02-16T05:10:08.430Z,33.72
2018-02-16T05:10:42.377Z,34.00
2018-02-16T05:11:16.320Z,33.92
2018-02-16T05:11:50.269Z,33.33
2018-02-16T05:12:24.153Z,33.95
2018-02-16T05:12:58.057Z,36.28
2018-02-16T05:13:31.949Z,34.65
2018-02-16T05:14:05.884Z,34.55
2018-02-16T05:14:39.940Z,34.00
2018-02-16T05:15:13.997Z,33.60
2018-02-16T05:15:47.913Z,35.85
2018-02-16T05:16:21.834Z,33.63
2018-02-16T05:16:55.881Z,34.88
2018-02-16T05:17:29.758Z,33.20
2018-02-16T05:18:03.677Z,34.33
2018-02-16T05:18:37.787Z,35.03
2018-02-16T05:19:11.814Z,32.60
2018-02-16T05:19:45.758Z,34.28
2018-02-16T05:20:20.165Z,33.17
2018-02-16T05:20:54.078Z,32.05
2018-02-16T05:21:28.487Z,34.85
2018-02-16T05:22:02.472Z,33.72
2018-02-16T05:22:36.491Z,32.55
2018-02-16T05:23:10.386Z,34.60
2018-02-16T05:23:44.825Z,34.13
2018-02-16T05:24:18.872Z,34.35
2018-02-16T05:24:52.764Z,33.30
2018-02-16T05:25:26.684Z,32.45
2018-02-16T05:26:00.657Z,32.33
2018-02-16T05:26:34.628Z,31.60
2018-02-16T05:27:08.571Z,32.33
2018-02-16T05:27:42.470Z,34.83
2018-02-16T05:28:16.347Z,34.28
2018-02-16T05:28:50.286Z,32.20
2018-02-16T05:29:24.443Z,32.92
2018-02-16T05:29:58.320Z,31.80
2018-02-16T05:30:32.211Z,32.80
2018-02-16T05:31:06.677Z,34.35
2018-02-16T05:31:40.755Z,34.75
2018-02-16T05:32:14.644Z,33.00
2018-02-16T05:32:48.709Z,34.67
2018-02-16T05:33:22.601Z,35.33
2018-02-16T05:33:56.525Z,31.90
2018-02-16T05:34:30.411Z,33.00
2018-02-16T05:35:04.345Z,32.53
2018-02-16T05:35:38.264Z,33.08
2018-02-16T05:36:12.201Z,33.25
2018-02-16T05:36:46.183Z,32.55
2018-02-16T05:37:20.095Z,33.88
2018-02-16T05:37:54.128Z,34.53
2018-02-16T05:38:34.058Z,30.70
2018-02-16T05:39:08.168Z,30.67
2018-02-16T05:39:42.079Z,31.65
2018-02-16T05:40:16.234Z,32.10
2018-02-16T05:40:50.371Z,27.75
2018-02-16T05:41:24.472Z,32.70
2018-02-16T05:41:58.585Z,32.67
2018-02-16T05:42:32.466Z,31.40
2018-02-16T05:43:06.329Z,31.67
2018-02-16T05:43:40.377Z,32.33
2018-02-16T05:44:14.389Z,31.33
2018-02-16T05:44:48.381Z,30.25
2018-02-16T05:45:22.361Z,30.25
2018-02-16T05:45:56.228Z,31.95
2018-02-16T05:46:30.187Z,30.70
2018-02-16T05:47:04.134Z,33.25
2018-02-16T05:47:38.356Z,30.80
2018-02-16T05:48:12.468Z,30.80
2018-02-16T05:48:46.537Z,30.45
2018-02-16T05:49:20.415Z,31.77
2018-02-16T05:49:54.361Z,30.88
2018-02-16T05:50:28.272Z,29.63
2018-02-16T05:51:02.140Z,30.35
2018-02-16T05:51:36.083Z,31.30
2018-02-16T05:52:09.972Z,29.33
2018-02-16T05:52:43.872Z,30.98
2018-02-16T05:53:17.760Z,31.15
2018-02-16T05:53:51.614Z,30.33
2018-02-16T05:54:25.658Z,31.40
2018-02-16T05:54:59.570Z,27.40
2018-02-16T05:55:33.481Z,29.67
2018-02-16T05:56:07.419Z,30.02
2018-02-16T05:56:41.289Z,29.05
2018-02-16T05:57:15.441Z,29.95
2018-02-16T05:57:49.456Z,27.00
2018-02-16T05:58:23.330Z,31.45
2018-02-16T05:58:57.387Z,28.33
2018-02-16T05:59:31.284Z,31.25
2018-02-16T06:00:05.228Z,28.95
2018-02-16T06:00:39.143Z,30.20
2018-02-16T06:01:13.230Z,31.20
2018-02-16T06:01:47.129Z,30.65
2018-02-16T06:02:21.615Z,29.48
2018-02-16T06:02:55.649Z,29.05
2018-02-16T06:03:29.520Z,28.90
2018-02-16T06:04:03.441Z,29.15
2018-02-16T06:04:37.421Z,29.08
2018-02-16T06:05:11.579Z,29.63
2018-02-16T06:05:46.061Z,28.17
2018-02-16T06:06:20.486Z,31.15
2018-02-16T06:06:56.079Z,29.00
2018-02-16T06:07:30.102Z,30.17
2018-02-16T06:08:04.265Z,30.27
2018-02-16T06:08:38.355Z,27.92
2018-02-16T06:09:12.260Z,28.95
2018-02-16T06:09:48.876Z,27.08
2018-02-16T06:10:23.984Z,27.50
2018-02-16T06:10:59.357Z,26.25
2018-02-16T06:11:33.471Z,27.77
2018-02-16T06:12:07.408Z,26.77
2018-02-16T06:12:41.368Z,28.45
2018-02-16T06:13:15.601Z,27.42
2018-02-16T06:13:49.851Z,29.02
2018-02-16T06:14:23.808Z,30.83
2018-02-16T06:14:57.811Z,28.25
2018-02-16T06:15:31.900Z,29.40
2018-02-16T06:16:06.099Z,28.02
2018-02-16T06:16:40.346Z,29.27
2018-02-16T06:17:14.445Z,29.67
2018-02-16T06:17:48.368Z,29.17
2018-02-16T06:18:22.461Z,28.20
2018-02-16T06:18:56.436Z,27.60
2018-02-16T06:19:30.845Z,28.25
2018-02-16T06:20:04.712Z,27.05
2018-02-16T06:20:38.679Z,30.05
2018-02-16T06:21:12.593Z,27.58
2018-02-16T06:21:46.608Z,28.45
2018-02-16T06:22:20.519Z,29.58
2018-02-16T06:22:54.557Z,29.10
2018-02-16T06:23:28.468Z,28.35
2018-02-16T06:24:02.555Z,28.30
2018-02-16T06:24:36.422Z,26.77
2018-02-16T06:25:10.293Z,29.05
2018-02-16T06:25:44.456Z,26.95
2018-02-16T06:26:18.703Z,28.50
2018-02-16T06:26:52.660Z,28.17
2018-02-16T06:27:26.605Z,25.73
2018-02-16T06:28:00.536Z,26.75
2018-02-16T06:28:34.517Z,27.90
2018-02-16T06:29:08.796Z,27.87
2018-02-16T06:29:42.714Z,26.02
2018-02-16T06:30:16.834Z,29.85
2018-02-16T06:30:50.727Z,27.70
2018-02-16T06:31:24.702Z,28.27
2018-02-16T06:31:59.041Z,26.90
2018-02-16T06:32:33.082Z,26.27
2018-02-16T06:33:08.169Z,28.12
2018-02-16T06:33:43.288Z,26.60
2018-02-16T06:34:17.182Z,27.35
2018-02-16T06:34:51.192Z,27.05
2018-02-16T06:35:25.123Z,27.35
2018-02-16T06:35:59.124Z,24.20
2018-02-16T06:36:33.249Z,26.42
2018-02-16T06:37:07.116Z,26.48
2018-02-16T06:37:41.175Z,26.67
2018-02-16T06:38:15.482Z,27.75
2018-02-16T06:38:49.457Z,28.67
2018-02-16T06:39:23.763Z,26.73
2018-02-16T06:39:57.659Z,26.30
2018-02-16T06:40:32.022Z,27.10
2018-02-16T06:41:06.149Z,28.05
2018-02-16T06:41:40.070Z,27.98
2018-02-16T06:42:15.241Z,26.83
2018-02-16T06:42:50.226Z,26.85
2018-02-16T06:43:24.153Z,26.20
2018-02-16T06:43:58.061Z,27.15
2018-02-16T06:44:35.775Z,27.60
2018-02-16T06:45:09.823Z,25.95
2018-02-16T06:45:43.897Z,27.80
2018-02-16T06:46:18.350Z,26.37
2018-02-16T06:46:56.080Z,25.92
2018-02-16T06:47:30.321Z,24.60
2018-02-16T06:48:05.222Z,24.63
2018-02-16T06:48:40.598Z,25.88
2018-02-16T06:49:14.654Z,27.33
2018-02-16T06:49:48.567Z,25.75
2018-02-16T06:50:22.462Z,25.52
2018-02-16T06:50:56.513Z,25.45
2018-02-16T06:51:30.456Z,25.15
2018-02-16T06:52:04.415Z,25.37
2018-02-16T06:52:38.482Z,23.95
2018-02-16T06:53:12.473Z,24.00
2018-02-16T06:53:46.508Z,27.50
2018-02-16T06:54:20.481Z,24.15
2018-02-16T06:54:55.732Z,26.15
2018-02-16T06:55:29.891Z,25.67
2018-02-16T06:56:03.833Z,26.30
2018-02-16T06:56:38.106Z,24.87
2018-02-16T06:57:12.156Z,25.80
2018-02-16T06:57:46.315Z,26.48
2018-02-16T06:58:20.409Z,25.00
2018-02-16T06:58:54.377Z,26.27
2018-02-16T06:59:29.799Z,25.50
2018-02-16T07:00:04.738Z,25.50
2018-02-16T07:00:38.683Z,25.98
2018-02-16T07:01:12.688Z,25.65
2018-02-16T07:01:47.073Z,23.40
2018-02-16T07:02:21.193Z,25.33
2018-02-16T07:02:55.177Z,25.92
2018-02-16T07:03:29.243Z,25.50
2018-02-16T07:04:03.131Z,25.17
2018-02-16T07:04:37.068Z,24.25
2018-02-16T07:05:10.929Z,24.77
2018-02-16T07:05:45.049Z,25.75
2018-02-16T07:06:18.969Z,25.95
2018-02-16T07:06:53.058Z,25.08
2018-02-16T07:07:27.214Z,24.50
2018-02-16T07:08:01.160Z,25.15
2018-02-16T07:08:35.079Z,25.42
2018-02-16T07:09:09.015Z,24.80
2018-02-16T07:09:43.232Z,23.02
2018-02-16T07:10:17.181Z,24.98
2018-02-16T07:10:51.049Z,23.87
2018-02-16T07:11:25.038Z,23.45
2018-02-16T07:11:58.952Z,25.45
2018-02-16T07:12:32.939Z,23.15
2018-02-16T07:13:07.112Z,25.15
2018-02-16T07:13:42.336Z,26.25
2018-02-16T07:14:18.945Z,24.42
2018-02-16T07:14:52.868Z,25.20
2018-02-16T07:15:26.851Z,27.25
2018-02-16T07:16:01.030Z,25.45
2018-02-16T07:16:34.982Z,22.67
2018-02-16T07:17:09.650Z,23.80
2018-02-16T07:17:43.577Z,25.90
2018-02-16T07:18:17.538Z,26.85
2018-02-16T07:18:51.529Z,25.17
2018-02-16T07:19:25.474Z,26.35
2018-02-16T07:19:59.432Z,21.87
2018-02-16T07:20:33.567Z,24.85
2018-02-16T07:21:07.709Z,25.48
2018-02-16T07:21:41.575Z,23.65